Time;durP1;ratioP1;P1;durP2;ratioP2;P2;SDS_P1;SDS_P2;PMS_P1;PMS_P2;Temp;Humidity;BMP_temperature;BMP_pressure;BME280_temperature;BME280_humidity;BME280_pressure;Samples;Min_cycle;Max_cycle;Signal;HPM_P1;HPM_P2
2023/04/10 00:02:12;;;;;;;15.73;14.32;;;;;;;10.41;60.43;101970.50;5094312;28;20107;-58
2023/04/10 00:04:37;;;;;;;15.77;13.60;;;;;;;10.37;60.61;101958.28;5112235;28;20039;-58
2023/04/10 00:07:03;;;;;;;15.45;14.07;;;;;;;10.33;60.48;101957.56;5111669;28;20054;-58
2023/04/10 00:09:29;;;;;;;16.10;14.70;;;;;;;10.29;61.02;101947.09;5112151;28;20023;-58
2023/04/10 00:11:55;;;;;;;16.25;14.63;;;;;;;10.37;60.29;101942.31;5119984;28;20027;-58
2023/04/10 00:14:21;;;;;;;15.02;13.75;;;;;;;10.33;60.70;101925.66;5119015;28;20035;-57
2023/04/10 00:16:48;;;;;;;14.88;13.52;;;;;;;10.50;60.05;101935.53;5093883;28;20027;-58
2023/04/10 00:19:13;;;;;;;15.60;14.25;;;;;;;10.35;60.44;101937.09;5114041;28;20114;-58
2023/04/10 00:21:39;;;;;;;14.68;13.27;;;;;;;10.55;59.98;101929.97;5115559;28;20106;-58
2023/04/10 00:24:04;;;;;;;15.68;14.27;;;;;;;10.41;59.80;101928.81;5112156;28;20039;-58
2023/04/10 00:26:29;;;;;;;16.05;14.50;;;;;;;10.33;60.06;101928.31;5111612;28;20023;-58
2023/04/10 00:28:55;;;;;;;14.73;13.43;;;;;;;10.35;60.38;101928.22;5110277;28;20076;-57
2023/04/10 00:31:20;;;;;;;15.43;13.95;;;;;;;10.31;60.43;101923.97;5111162;28;20397;-57
2023/04/10 00:33:46;;;;;;;15.32;13.95;;;;;;;10.37;59.99;101921.91;5131712;28;20038;-58
2023/04/10 00:36:11;;;;;;;14.82;13.40;;;;;;;10.26;60.17;101916.16;5133598;27;20026;-57
2023/04/10 00:38:37;;;;;;;14.68;13.38;;;;;;;10.26;60.04;101915.31;5136615;27;20030;-57
2023/04/10 00:41:02;;;;;;;14.57;13.18;;;;;;;10.20;60.25;101914.63;5135564;27;20023;-58
2023/04/10 00:43:28;;;;;;;14.13;12.77;;;;;;;10.15;60.53;101905.16;5134965;27;20034;-58
2023/04/10 00:45:53;;;;;;;15.15;13.75;;;;;;;10.10;60.03;101892.06;5117424;27;20690;-57
2023/04/10 00:48:19;;;;;;;15.02;13.73;;;;;;;10.17;59.96;101892.66;5117725;27;20049;-58
2023/04/10 00:50:46;;;;;;;14.40;13.10;;;;;;;10.23;59.95;101903.91;5133460;27;20039;-58
2023/04/10 00:53:11;;;;;;;14.57;13.30;;;;;;;10.26;59.66;101902.88;5115814;28;20051;-57
2023/04/10 00:55:37;;;;;;;14.30;12.82;;;;;;;10.23;59.84;101898.59;5115333;28;20047;-58
2023/04/10 00:58:02;;;;;;;14.85;13.38;;;;;;;10.15;60.17;101908.69;5116050;28;20031;-57
2023/04/10 01:00:30;;;;;;;14.27;12.88;;;;;;;10.12;59.38;101910.63;5115012;28;20035;-57
2023/04/10 01:02:55;;;;;;;14.70;13.40;;;;;;;10.08;59.80;101906.34;5116504;27;20023;-58
2023/04/10 01:05:24;;;;;;;14.40;13.18;;;;;;;9.97;60.27;101901.50;5115296;28;20368;-57
2023/04/10 01:08:07;;;;;;;13.82;12.43;;;;;;;10.18;59.65;101905.03;5081070;27;20122;-58
2023/04/10 01:10:43;;;;;;;15.65;14.13;;;;;;;10.06;60.01;101901.13;5117992;27;20031;-57
2023/04/10 01:13:26;;;;;;;14.40;13.10;;;;;;;10.14;59.41;101904.28;5128734;27;20390;-57
2023/04/10 01:16:00;;;;;;;14.55;13.35;;;;;;;10.07;59.90;101899.31;5111541;28;20036;-58
2023/04/10 01:18:33;;;;;;;13.35;12.25;;;;;;;9.98;59.86;101885.50;5115174;28;20024;-58
2023/04/10 01:21:01;;;;;;;14.63;13.43;;;;;;;10.12;60.21;101889.34;5115069;27;20507;-58
2023/04/10 01:23:48;;;;;;;14.25;12.95;;;;;;;9.89;60.39;101879.72;5114943;28;20032;-58
2023/04/10 01:26:16;;;;;;;14.60;13.40;;;;;;;9.82;60.37;101875.59;5115411;27;20027;-57
2023/04/10 01:28:55;;;;;;;14.98;13.68;;;;;;;9.81;61.33;101889.81;5115242;28;20107;-57
2023/04/10 01:31:30;;;;;;;13.82;12.63;;;;;;;9.78;60.93;101878.38;5115909;27;20478;-58
2023/04/10 01:34:01;;;;;;;15.00;13.60;;;;;;;9.89;60.99;101885.91;5109515;28;20039;-57
2023/04/10 01:36:34;;;;;;;13.88;12.68;;;;;;;9.91;60.78;101881.41;5095883;28;20116;-57
2023/04/10 01:39:04;;;;;;;14.05;12.75;;;;;;;9.80;60.59;101882.78;5113710;28;20079;-57
2023/04/10 01:41:30;;;;;;;;;;;;;;;10.02;60.30;101886.22;5113992;27;20031;-58
2023/04/10 01:43:57;;;;;;;14.05;12.65;;;;;;;9.83;61.12;101864.91;5113138;28;19988;-57
2023/04/10 01:46:25;;;;;;;14.57;13.13;;;;;;;9.72;61.15;101873.34;5112663;28;20027;-58
2023/04/10 01:48:52;;;;;;;15.48;14.00;;;;;;;9.71;61.24;101868.09;5113650;28;20835;-58
2023/04/10 01:51:18;;;;;;;15.32;13.93;;;;;;;9.77;62.03;101859.88;5096069;28;20080;-57
2023/04/10 01:53:44;;;;;;;14.65;13.32;;;;;;;9.73;61.64;101860.91;5096002;28;20118;-57
2023/04/10 01:56:12;;;;;;;14.70;13.40;;;;;;;9.64;63.09;101870.13;5114438;28;20024;-58
2023/04/10 01:58:37;;;;;;;13.88;12.63;;;;;;;9.71;61.40;101847.72;5079789;27;20176;-58
2023/04/10 02:01:03;;;;;;;15.65;14.23;;;;;;;9.59;62.45;101853.56;5115083;27;20483;-58
2023/04/10 02:03:29;;;;;;;14.70;13.50;;;;;;;9.63;61.75;101844.53;5114333;28;20479;-58
2023/04/10 02:06:13;;;;;;;14.63;13.32;;;;;;;9.59;62.54;101844.69;5114194;28;20024;-58
2023/04/10 02:08:50;;;;;;;13.82;12.65;;;;;;;9.53;61.98;101829.94;5096799;28;20100;-58
2023/04/10 02:11:36;;;;;;;14.80;13.52;;;;;;;9.65;61.75;101831.19;5114448;27;20474;-58
2023/04/10 02:14:08;;;;;;;14.63;13.32;;;;;;;9.58;62.18;101835.88;5094206;28;20071;-58
2023/04/10 02:16:37;;;;;;;14.65;13.45;;;;;;;9.46;62.29;101821.34;5100013;28;20023;-58
2023/04/10 02:19:05;;;;;;;14.35;13.15;;;;;;;9.52;62.23;101826.38;5117098;27;20032;-58
2023/04/10 02:21:32;;;;;;;15.15;13.57;;;;;;;9.47;62.47;101828.38;5109838;27;20589;-57
2023/04/10 02:23:59;;;;;;;14.70;13.48;;;;;;;9.44;62.30;101814.34;5095047;28;20128;-58
2023/04/10 02:26:24;;;;;;;14.43;13.15;;;;;;;9.62;61.88;101823.31;5095462;28;20110;-58
2023/04/10 02:28:50;;;;;;;14.30;13.02;;;;;;;9.42;62.80;101813.59;5113931;28;20149;-57
2023/04/10 02:31:15;;;;;;;14.38;13.07;;;;;;;9.41;61.65;101819.78;5096189;28;20035;-57
2023/04/10 02:33:41;;;;;;;15.13;13.73;;;;;;;9.42;62.12;101817.09;5122141;27;20034;-58
2023/04/10 02:36:06;;;;;;;15.43;13.90;;;;;;;9.31;62.66;101820.19;5134176;27;20461;-58
2023/04/10 02:38:34;;;;;;;13.70;12.52;;;;;;;9.44;61.99;101817.00;5134035;27;20239;-58
2023/04/10 02:41:00;;;;;;;14.27;13.07;;;;;;;9.39;62.47;101814.56;5132320;27;20557;-58
2023/04/10 02:43:25;;;;;;;14.25;13.07;;;;;;;9.47;62.26;101816.88;5134041;27;20023;-58
2023/04/10 02:45:51;;;;;;;14.10;12.85;;;;;;;9.41;61.83;101817.16;5133566;27;20023;-58
2023/04/10 02:48:16;;;;;;;14.75;13.40;;;;;;;9.42;61.66;101813.59;5133903;27;20050;-58
2023/04/10 02:50:44;;;;;;;14.40;12.98;;;;;;;9.29;63.10;101824.72;5091899;28;20028;-58
2023/04/10 02:53:14;;;;;;;13.80;12.50;;;;;;;9.26;63.36;101819.50;5093290;28;20024;-58
2023/04/10 02:55:40;;;;;;;;;;;;;;;9.59;61.99;101824.34;5109084;27;20109;-58
2023/04/10 02:58:06;;;;;;;14.38;12.88;;;;;;;9.44;61.45;101814.34;5093275;28;19959;-58
2023/04/10 03:00:32;;;;;;;13.65;12.38;;;;;;;9.41;61.60;101817.16;5100103;27;20024;-57
2023/04/10 03:02:57;;;;;;;13.27;11.98;;;;;;;9.41;61.58;101806.53;5108249;28;20067;-58
2023/04/10 03:05:23;;;;;;;13.57;12.15;;;;;;;9.50;61.55;101811.44;5121822;27;20027;-57
2023/04/10 03:07:52;;;;;;;13.90;12.70;;;;;;;9.39;61.10;101803.94;5093802;28;20035;-57
2023/04/10 03:10:18;;;;;;;13.35;12.25;;;;;;;9.36;61.75;101813.84;5118866;27;20038;-57
2023/04/10 03:12:43;;;;;;;14.23;13.02;;;;;;;9.21;63.43;101808.25;5111888;28;20396;-57
2023/04/10 03:15:09;;;;;;;14.98;13.68;;;;;;;9.28;62.63;101824.78;5098922;28;20099;-57
2023/04/10 03:17:34;;;;;;;14.68;13.48;;;;;;;9.21;63.51;101820.66;5092498;28;20024;-57
2023/04/10 03:20:00;;;;;;;14.23;13.02;;;;;;;9.20;63.70;101830.38;5098079;27;20024;-57
2023/04/10 03:22:26;;;;;;;14.15;12.98;;;;;;;9.32;62.77;101826.34;5106222;28;20027;-57
2023/04/10 03:24:51;;;;;;;14.32;12.95;;;;;;;9.24;63.15;101839.13;5093575;28;20094;-57
2023/04/10 03:27:17;;;;;;;14.40;13.20;;;;;;;9.24;62.76;101831.16;5110298;28;20031;-57
2023/04/10 03:29:43;;;;;;;14.10;12.98;;;;;;;9.23;62.39;101822.28;5104492;27;20070;-57
2023/04/10 03:32:08;;;;;;;14.60;13.32;;;;;;;9.17;62.57;101825.22;5091531;28;20019;-58
2023/04/10 03:34:33;;;;;;;14.57;13.38;;;;;;;9.07;63.62;101821.22;5092781;28;20028;-58
2023/04/10 03:36:59;;;;;;;14.05;12.82;;;;;;;9.06;64.59;101820.38;5093003;28;20103;-58
2023/04/10 03:39:24;;;;;;;14.90;13.52;;;;;;;9.10;63.18;101819.31;5106673;27;20024;-57
2023/04/10 03:41:49;;;;;;;13.25;12.18;;;;;;;9.06;62.43;101803.59;5092119;28;20425;-58
2023/04/10 03:44:15;;;;;;;14.50;13.18;;;;;;;9.17;62.92;101798.66;5121467;27;20045;-57
2023/04/10 03:46:40;;;;;;;14.75;13.45;;;;;;;9.05;62.52;101785.91;5092846;28;20023;-57
2023/04/10 03:49:06;;;;;;;14.02;12.73;;;;;;;9.11;63.62;101798.94;5114032;27;20562;-57
2023/04/10 03:51:31;;;;;;;13.45;12.27;;;;;;;8.91;64.20;101797.09;5132857;27;20173;-58
2023/04/10 03:53:57;;;;;;;15.00;13.70;;;;;;;8.97;63.23;101793.31;5093576;28;20042;-57
2023/04/10 03:56:22;;;;;;;15.23;13.82;;;;;;;9.00;62.75;101798.50;5092923;28;20028;-58
2023/04/10 03:58:50;;;;;;;14.20;13.00;;;;;;;9.00;63.11;101796.75;5104022;28;20024;-58
2023/04/10 04:01:15;;;;;;;14.70;13.50;;;;;;;8.97;62.72;101791.56;5111715;28;20024;-58
2023/04/10 04:03:43;;;;;;;14.82;13.43;;;;;;;8.86;63.63;101786.69;5111159;28;20050;-58
2023/04/10 04:06:08;;;;;;;15.50;14.00;;;;;;;8.63;64.64;101784.09;5112230;28;20696;-58
2023/04/10 04:08:35;;;;;;;16.30;14.90;;;;;;;8.63;65.51;101778.78;5083649;28;20008;-58
2023/04/10 04:11:00;;;;;;;15.40;13.98;;;;;;;8.73;64.79;101777.47;5085672;28;20023;-57
2023/04/10 04:13:26;;;;;;;16.15;14.75;;;;;;;8.67;63.99;101782.19;5115164;28;20019;-58
2023/04/10 04:15:51;;;;;;;15.93;14.45;;;;;;;8.64;64.85;101769.91;5107226;27;20069;-58
2023/04/10 04:18:17;;;;;;;15.35;14.05;;;;;;;8.70;64.90;101771.44;5136172;27;20068;-58
2023/04/10 04:20:45;;;;;;;16.27;14.68;;;;;;;8.67;64.36;101769.78;5135819;27;20578;-57
2023/04/10 04:23:10;;;;;;;15.45;14.05;;;;;;;8.58;65.00;101772.81;5135191;27;20062;-58
2023/04/10 04:25:38;;;;;;;16.15;14.45;;;;;;;8.63;64.35;101771.69;5136496;27;20058;-57
2023/04/10 04:28:04;;;;;;;16.45;15.00;;;;;;;8.60;63.89;101773.63;5132982;27;20023;-57
2023/04/10 04:30:30;;;;;;;16.70;15.30;;;;;;;8.54;64.16;101769.41;5115692;28;20035;-57
2023/04/10 04:32:58;;;;;;;17.10;15.70;;;;;;;8.60;64.71;101763.88;5116573;27;20379;-58
2023/04/10 04:35:23;;;;;;;18.08;16.35;;;;;;;8.68;64.18;101760.03;5115777;28;20035;-57
2023/04/10 04:37:48;;;;;;;17.45;15.43;;;;;;;8.56;64.41;101762.28;5116162;28;20550;-57
2023/04/10 04:40:14;;;;;;;16.65;15.25;;;;;;;8.57;64.37;101748.06;5117023;27;20024;-58
2023/04/10 04:42:39;;;;;;;16.50;15.00;;;;;;;8.66;63.92;101762.75;5097878;28;20027;-58
2023/04/10 04:45:05;;;;;;;16.98;15.48;;;;;;;8.61;64.55;101754.13;5115895;28;20031;-58
2023/04/10 04:47:31;;;;;;;17.20;15.55;;;;;;;8.67;63.94;101756.50;5116045;27;20019;-57
2023/04/10 04:49:56;;;;;;;17.08;15.57;;;;;;;8.69;63.93;101753.81;5135243;27;20039;-58
2023/04/10 04:52:22;;;;;;;16.38;14.98;;;;;;;8.70;63.43;101755.53;5136278;27;20106;-57
2023/04/10 04:54:50;;;;;;;16.13;14.73;;;;;;;8.68;63.36;101754.72;5136306;27;20023;-57
2023/04/10 04:57:15;;;;;;;16.67;15.20;;;;;;;8.71;63.08;101750.19;5136076;27;20053;-58
2023/04/10 04:59:41;;;;;;;16.95;15.25;;;;;;;8.52;64.37;101747.38;5134770;27;20019;-58
2023/04/10 05:02:06;;;;;;;17.17;15.40;;;;;;;8.65;63.55;101745.13;5135432;27;20067;-57
2023/04/10 05:04:31;;;;;;;17.48;15.85;;;;;;;8.64;63.66;101754.00;5117135;27;20031;-57
2023/04/10 05:06:57;;;;;;;16.83;15.40;;;;;;;8.62;63.39;101743.47;5135104;27;20054;-58
2023/04/10 05:09:25;;;;;;;16.95;15.25;;;;;;;8.60;63.84;101745.31;5098327;28;20043;-58
2023/04/10 05:11:51;;;;;;;16.67;15.18;;;;;;;8.51;64.68;101742.16;5096941;28;20027;-57
2023/04/10 05:14:17;;;;;;;16.77;15.18;;;;;;;8.58;63.91;101725.06;5104510;28;20020;-58
2023/04/10 05:16:42;;;;;;;16.98;15.43;;;;;;;8.73;63.66;101729.75;5107594;28;20031;-58
2023/04/10 05:19:08;;;;;;;17.30;15.52;;;;;;;8.64;63.62;101725.69;5112011;27;20612;-58
2023/04/10 05:21:35;;;;;;;15.35;14.10;;;;;;;8.76;63.03;101723.44;5102780;28;20064;-57
2023/04/10 05:24:00;;;;;;;17.23;15.73;;;;;;;8.76;63.03;101720.81;5123808;27;20113;-58
2023/04/10 05:26:26;;;;;;;16.38;14.88;;;;;;;8.71;63.07;101728.97;5113575;28;20173;-57
2023/04/10 05:28:51;;;;;;;16.75;15.27;;;;;;;8.74;63.33;101725.31;5118285;27;20024;-58
2023/04/10 05:31:16;;;;;;;16.00;14.60;;;;;;;8.71;63.36;101728.09;5094731;28;20028;-58
2023/04/10 05:33:42;;;;;;;16.85;15.35;;;;;;;8.74;62.80;101722.69;5114895;28;20040;-58
2023/04/10 05:36:09;;;;;;;15.88;13.90;;;;;;;8.76;62.73;101728.75;5114724;28;20039;-58
2023/04/10 05:38:35;;;;;;;15.18;13.88;;;;;;;8.69;63.01;101728.16;5097715;28;20024;-57
2023/04/10 05:41:00;;;;;;;16.20;14.80;;;;;;;8.70;62.82;101729.00;5115185;27;20456;-58
2023/04/10 05:43:25;;;;;;;16.05;14.68;;;;;;;8.68;63.42;101725.56;5113632;28;20036;-58
2023/04/10 05:45:51;;;;;;;16.85;15.35;;;;;;;8.67;62.93;101723.84;5112868;28;20015;-57
2023/04/10 05:48:17;;;;;;;16.08;14.68;;;;;;;8.79;62.93;101710.91;5108873;27;20130;-57
2023/04/10 05:50:43;;;;;;;16.88;15.30;;;;;;;8.76;62.83;101721.66;5116698;27;20023;-58
2023/04/10 05:53:12;;;;;;;15.43;14.20;;;;;;;8.70;62.44;101731.66;5135428;27;20027;-58
2023/04/10 05:55:38;;;;;;;;;;;;;;;8.85;62.23;101736.31;5115340;27;20054;-57
2023/04/10 05:58:03;;;;;;;16.10;14.77;;;;;;;8.71;62.81;101736.06;5105871;27;19957;-58
2023/04/10 06:00:29;;;;;;;16.30;14.90;;;;;;;8.67;62.28;101726.50;5134273;27;20042;-57
2023/04/10 06:02:54;;;;;;;16.13;14.82;;;;;;;8.74;62.40;101743.88;5116487;27;20019;-57
2023/04/10 06:05:20;;;;;;;16.30;14.80;;;;;;;8.86;62.42;101730.13;5134510;27;20106;-58
2023/04/10 06:07:45;;;;;;;16.40;14.98;;;;;;;8.91;62.23;101737.88;5121105;27;20055;-58
2023/04/10 06:10:13;;;;;;;16.77;15.35;;;;;;;8.98;62.12;101742.00;5114112;28;20454;-57
2023/04/10 06:12:39;;;;;;;15.95;14.65;;;;;;;8.85;62.41;101737.22;5092389;28;20487;-57
2023/04/10 06:15:05;;;;;;;15.30;14.07;;;;;;;8.87;62.07;101731.84;5125340;27;20038;-58
2023/04/10 06:17:30;;;;;;;16.10;14.52;;;;;;;8.97;62.07;101734.94;5096769;28;20030;-57
2023/04/10 06:19:58;;;;;;;15.50;14.13;;;;;;;9.04;61.87;101731.13;5113051;28;20027;-57
2023/04/10 06:22:23;;;;;;;15.80;14.27;;;;;;;9.09;61.63;101731.81;5112701;28;20020;-57
2023/04/10 06:24:51;;;;;;;16.20;14.80;;;;;;;9.12;61.47;101721.06;5111535;28;20024;-57
2023/04/10 06:27:16;;;;;;;15.30;14.00;;;;;;;9.13;61.09;101714.81;5114367;27;20063;-57
2023/04/10 06:29:45;;;;;;;14.98;13.57;;;;;;;9.17;60.84;101713.75;5112752;28;20051;-57
2023/04/10 06:32:10;;;;;;;15.73;14.35;;;;;;;9.12;60.82;101705.13;5109862;28;20027;-57
2023/04/10 06:34:36;;;;;;;15.75;14.02;;;;;;;9.19;60.93;101700.41;5110071;28;20111;-58
2023/04/10 06:37:03;;;;;;;15.85;14.43;;;;;;;9.19;60.21;101695.09;5116408;27;20295;-58
2023/04/10 06:39:29;;;;;;;15.32;14.05;;;;;;;9.29;60.46;101697.31;5127960;27;20041;-57
2023/04/10 06:41:55;;;;;;;15.93;14.43;;;;;;;9.26;60.72;101686.78;5111318;28;20032;-57
2023/04/10 06:44:20;;;;;;;15.38;13.88;;;;;;;9.27;60.28;101683.22;5108832;28;20027;-58
2023/04/10 06:46:45;;;;;;;16.63;15.05;;;;;;;9.35;59.66;101687.31;5119318;27;20042;-58
2023/04/10 06:49:11;;;;;;;14.82;13.65;;;;;;;9.41;60.14;101679.09;5105233;28;20040;-57
2023/04/10 06:51:36;;;;;;;15.70;14.40;;;;;;;9.42;59.80;101676.38;5091565;28;20028;-57
2023/04/10 06:54:02;;;;;;;16.15;14.75;;;;;;;9.37;60.15;101661.56;5092937;28;20360;-57
2023/04/10 06:56:27;;;;;;;14.55;13.45;;;;;;;9.43;60.13;101675.44;5089902;28;20134;-58
2023/04/10 06:58:52;;;;;;;14.93;13.73;;;;;;;9.53;59.27;101673.25;5070792;28;20050;-58
2023/04/10 07:01:18;;;;;;;14.23;13.02;;;;;;;9.59;58.75;101662.34;5072753;28;20067;-58
2023/04/10 07:03:43;;;;;;;15.25;13.95;;;;;;;9.59;59.27;101658.78;5064843;28;20025;-58
2023/04/10 07:06:10;;;;;;;14.73;13.52;;;;;;;9.53;58.89;101657.31;5072805;28;20021;-57
2023/04/10 07:08:35;;;;;;;15.55;14.25;;;;;;;9.60;58.79;101653.44;5072492;28;20028;-57
2023/04/10 07:11:01;;;;;;;14.65;13.35;;;;;;;9.66;58.42;101645.16;5072226;28;20411;-58
2023/04/10 07:13:26;;;;;;;14.48;13.00;;;;;;;9.72;58.79;101638.72;5073121;28;20139;-58
2023/04/10 07:15:51;;;;;;;15.45;14.05;;;;;;;9.71;59.00;101634.34;5071704;28;20024;-58
2023/04/10 07:18:17;;;;;;;14.45;13.25;;;;;;;9.71;58.58;101635.19;5052354;28;20029;-58
2023/04/10 07:20:42;;;;;;;14.10;12.93;;;;;;;9.81;58.42;101637.44;5050970;28;20120;-58
2023/04/10 07:23:08;;;;;;;14.82;13.30;;;;;;;9.84;58.74;101634.63;5068627;28;20021;-58
2023/04/10 07:25:33;;;;;;;14.55;13.32;;;;;;;9.90;58.33;101623.69;5056403;28;20060;-58
2023/04/10 07:28:00;;;;;;;14.43;13.32;;;;;;;9.95;58.35;101621.69;5068707;28;20021;-58
2023/04/10 07:30:25;;;;;;;14.38;13.07;;;;;;;10.10;58.14;101609.47;5064372;28;20070;-59
2023/04/10 07:32:51;;;;;;;14.73;13.48;;;;;;;10.12;57.58;101619.09;5068847;28;20016;-58
2023/04/10 07:35:16;;;;;;;13.82;12.73;;;;;;;10.18;56.51;101626.75;5072008;28;20503;-58
2023/04/10 07:37:43;;;;;;;14.45;13.05;;;;;;;10.22;56.87;101617.69;5070708;28;20028;-58
2023/04/10 07:40:09;;;;;;;13.55;12.40;;;;;;;10.28;56.68;101610.38;5086401;28;20058;-58
2023/04/10 07:42:35;;;;;;;13.95;12.73;;;;;;;10.38;56.42;101606.31;5091836;28;20028;-59
2023/04/10 07:45:00;;;;;;;14.13;12.93;;;;;;;10.42;56.25;101606.09;5091864;28;20074;-58
2023/04/10 07:47:26;;;;;;;13.80;12.68;;;;;;;10.42;56.41;101592.78;5075407;28;20020;-59
2023/04/10 07:49:51;;;;;;;13.40;12.30;;;;;;;10.61;56.77;101594.50;5090930;28;20571;-58
2023/04/10 07:52:16;;;;;;;13.73;12.52;;;;;;;10.77;55.40;101575.97;5105491;27;20375;-58
2023/04/10 07:54:42;;;;;;;14.52;13.20;;;;;;;10.93;55.31;101576.03;5112635;28;20143;-59
2023/04/10 07:57:08;;;;;;;13.60;12.45;;;;;;;10.93;55.23;101574.22;5109285;28;20444;-58
2023/04/10 07:59:33;;;;;;;13.77;12.57;;;;;;;11.22;55.51;101566.47;5107233;28;20391;-58
2023/04/10 08:01:58;;;;;;;14.27;12.88;;;;;;;11.41;54.19;101569.84;5093273;28;20019;-59
2023/04/10 08:04:24;;;;;;;14.77;11.90;;;;;;;11.45;54.61;101563.41;5093978;28;20027;-58
2023/04/10 08:06:49;;;;;;;12.82;11.73;;;;;;;11.57;53.51;101560.06;5093455;28;20367;-59
2023/04/10 08:09:15;;;;;;;12.82;11.73;;;;;;;11.66;53.94;101560.50;5112282;28;20092;-59
2023/04/10 08:11:40;;;;;;;13.25;11.25;;;;;;;11.64;53.77;101559.72;5110298;28;20026;-59
2023/04/10 08:14:05;;;;;;;12.50;11.43;;;;;;;11.64;54.05;101555.25;5110376;28;20525;-59
2023/04/10 08:16:35;;;;;;;13.20;12.10;;;;;;;11.59;54.01;101558.19;5111555;28;20019;-59
2023/04/10 08:19:01;;;;;;;12.73;11.52;;;;;;;11.59;54.39;101544.00;5121212;28;20030;-59
2023/04/10 08:21:28;;;;;;;12.48;11.45;;;;;;;11.73;53.83;101570.72;5113595;28;20027;-59
2023/04/10 08:23:55;;;;;;;12.80;11.77;;;;;;;11.68;53.74;101556.81;5132740;28;20053;-59
2023/04/10 08:26:21;;;;;;;12.38;11.30;;;;;;;11.66;54.41;101550.69;5132022;28;20053;-59
2023/04/10 08:28:49;;;;;;;13.02;11.93;;;;;;;11.72;54.13;101558.34;5103030;28;20027;-59
2023/04/10 08:31:15;;;;;;;12.05;11.05;;;;;;;11.77;54.28;101545.63;5093453;28;20043;-59
2023/04/10 08:33:40;;;;;;;12.23;11.18;;;;;;;11.80;53.35;101548.13;5093866;28;20470;-59
2023/04/10 08:36:08;;;;;;;13.48;12.18;;;;;;;11.88;53.43;101542.34;5091150;28;20062;-59
2023/04/10 08:38:34;;;;;;;12.13;11.05;;;;;;;11.88;53.38;101541.50;5100898;28;20059;-59
2023/04/10 08:40:59;;;;;;;12.77;11.75;;;;;;;11.92;53.67;101541.25;5131889;28;20098;-59
2023/04/10 08:43:27;;;;;;;12.70;11.70;;;;;;;11.92;53.74;101525.25;5132223;28;20061;-59
2023/04/10 08:45:56;;;;;;;12.93;11.90;;;;;;;11.84;53.48;101532.81;5105043;28;20020;-59
2023/04/10 08:48:30;;;;;;;13.55;12.45;;;;;;;11.88;53.78;101533.50;5109369;28;20035;-58
2023/04/10 08:50:59;;;;;;;13.65;12.55;;;;;;;11.98;54.78;101532.06;5073082;28;20534;-59
2023/04/10 08:53:31;;;;;;;;;;;;;;;12.14;54.72;101535.53;5091198;28;20036;-58
2023/04/10 08:56:01;;;;;;;13.38;12.27;;;;;;;12.11;54.05;101534.84;5071874;28;20354;-58
2023/04/10 08:58:27;;;;;;;;;;;;;;;12.37;53.38;101531.50;5094419;27;20023;-59
2023/04/10 09:00:52;;;;;;;18.67;12.20;;;;;;;12.09;53.63;101526.97;5117214;27;19918;-59
2023/04/10 09:03:18;;;;;;;13.35;12.15;;;;;;;12.11;53.96;101535.69;5117456;27;20030;-58
2023/04/10 09:05:43;;;;;;;12.85;11.65;;;;;;;12.16;55.41;101533.63;5117565;27;20076;-58
2023/04/10 09:08:13;;;;;;;11.98;10.98;;;;;;;12.21;54.11;101523.56;5133998;27;20023;-58
2023/04/10 09:10:39;;;;;;;13.43;11.80;;;;;;;12.25;54.19;101519.75;5127301;27;20072;-59
2023/04/10 09:13:04;;;;;;;12.25;11.18;;;;;;;12.32;54.08;101514.03;5115368;28;20479;-58
2023/04/10 09:15:30;;;;;;;12.38;11.30;;;;;;;12.32;53.80;101514.91;5096382;28;20037;-58
2023/04/10 09:18:02;;;;;;;12.40;11.40;;;;;;;12.44;54.16;101518.66;5121575;27;20052;-58
2023/04/10 09:20:31;;;;;;;11.68;10.77;;;;;;;12.61;54.55;101522.97;5135603;27;20027;-59
2023/04/10 09:22:57;;;;;;;12.93;11.73;;;;;;;12.66;53.66;101520.88;5116940;27;20025;-58
2023/04/10 09:25:44;;;;;;;11.63;10.57;;;;;;;12.73;53.40;101515.09;5135366;27;20035;-58
2023/04/10 09:28:10;;;;;;;12.80;11.60;;;;;;;12.77;53.77;101506.91;5115515;27;20065;-58
2023/04/10 09:30:40;;;;;;;13.52;12.35;;;;;;;12.81;53.82;101508.41;5134828;27;20039;-58
2023/04/10 09:33:23;;;;;;;11.73;10.73;;;;;;;12.82;53.35;101492.28;5116887;27;20023;-58
2023/04/10 09:35:49;;;;;;;11.68;10.77;;;;;;;12.78;53.58;101473.91;5135211;27;20041;-58
2023/04/10 09:38:20;;;;;;;11.45;10.45;;;;;;;12.85;53.43;101481.44;5104885;28;20024;-59
2023/04/10 09:40:47;;;;;;;11.95;10.85;;;;;;;12.91;54.11;101475.72;5096236;28;20043;-58
2023/04/10 09:43:26;;;;;;;11.38;10.48;;;;;;;12.85;53.57;101460.09;5130581;27;20081;-59
2023/04/10 09:45:56;;;;;;;10.98;10.07;;;;;;;12.91;53.92;101457.03;5113915;28;20031;-58
2023/04/10 09:48:23;;;;;;;11.80;10.75;;;;;;;12.90;53.21;101452.63;5115415;27;20032;-58
2023/04/10 09:50:50;;;;;;;11.85;10.68;;;;;;;12.90;54.09;101454.44;5092526;28;20044;-58
2023/04/10 09:53:18;;;;;;;11.27;10.27;;;;;;;13.00;54.31;101452.91;5093842;28;20024;-58
2023/04/10 09:55:45;;;;;;;11.18;10.20;;;;;;;13.08;54.34;101455.94;5093990;28;20030;-59
2023/04/10 09:58:12;;;;;;;11.68;10.70;;;;;;;13.17;53.35;101449.16;5106651;28;20027;-58
2023/04/10 10:00:37;;;;;;;10.95;9.90;;;;;;;13.26;53.29;101442.38;5112842;28;20051;-58
2023/04/10 10:03:07;;;;;;;12.35;9.38;;;;;;;13.35;53.23;101447.13;5114473;27;20043;-59
2023/04/10 10:05:36;;;;;;;9.80;9.10;;;;;;;13.39;51.96;101449.50;5114225;28;20042;-58
2023/04/10 10:08:01;;;;;;;11.10;10.20;;;;;;;13.39;52.04;101429.97;5112339;28;20062;-58
2023/04/10 10:10:27;;;;;;;9.95;9.05;;;;;;;13.55;52.01;101433.31;5107027;28;20301;-59
2023/04/10 10:12:58;;;;;;;10.20;9.27;;;;;;;13.61;51.71;101427.56;5092482;28;20024;-58
2023/04/10 10:15:49;;;;;;;10.07;9.27;;;;;;;13.84;51.41;101426.03;5091818;28;20038;-58
2023/04/10 10:18:42;;;;;;;11.27;9.77;;;;;;;13.89;51.45;101417.69;5107607;28;20089;-59
2023/04/10 10:21:12;;;;;;;11.23;9.57;;;;;;;14.05;51.23;101407.66;5112190;28;20035;-59
2023/04/10 10:23:43;;;;;;;9.20;8.40;;;;;;;14.20;50.41;101410.25;5114176;28;20100;-59
2023/04/10 10:26:09;;;;;;;10.10;9.27;;;;;;;14.32;49.24;101418.28;5114011;28;20030;-58
2023/04/10 10:28:35;;;;;;;9.30;8.40;;;;;;;14.51;49.37;101409.84;5112037;28;20501;-59
2023/04/10 10:31:02;;;;;;;9.82;9.02;;;;;;;14.63;48.78;101400.09;5113324;27;20019;-58
2023/04/10 10:33:29;;;;;;;9.63;8.73;;;;;;;14.74;48.70;101391.28;5112459;28;20027;-59
2023/04/10 10:36:00;;;;;;;9.52;8.63;;;;;;;14.99;49.14;101390.34;5113368;28;20122;-59
2023/04/10 10:38:27;;;;;;;9.38;8.68;;;;;;;15.04;47.63;101388.22;5092803;28;20024;-59
2023/04/10 10:41:08;;;;;;;9.15;8.35;;;;;;;15.19;47.93;101380.88;5093366;28;20415;-59
2023/04/10 10:43:48;;;;;;;11.38;8.15;;;;;;;15.28;47.91;101385.53;5091742;28;20103;-59
2023/04/10 10:46:25;;;;;;;8.73;8.02;;;;;;;15.34;48.25;101378.88;5091107;28;20402;-59
2023/04/10 10:48:58;;;;;;;7.75;7.15;;;;;;;15.28;47.55;101369.47;5097307;28;20043;-59
2023/04/10 10:51:42;;;;;;;8.57;7.88;;;;;;;15.33;48.42;101369.13;5094547;28;20055;-59
2023/04/10 10:54:33;;;;;;;8.60;7.90;;;;;;;15.40;47.33;101360.50;5095328;28;20027;-58
2023/04/10 10:57:00;;;;;;;8.30;7.63;;;;;;;15.40;47.37;101360.50;5103893;27;20027;-59
2023/04/10 10:59:49;;;;;;;8.88;8.18;;;;;;;15.51;46.78;101362.38;5098230;27;20065;-59
2023/04/10 11:02:16;;;;;;;9.93;8.38;;;;;;;15.60;46.38;101347.41;5114537;27;20023;-57
2023/04/10 11:04:46;;;;;;;8.27;7.57;;;;;;;15.78;47.06;101337.13;5105399;28;20027;-58
2023/04/10 11:07:13;;;;;;;8.10;7.50;;;;;;;16.00;46.55;101329.13;5092710;28;20076;-58
2023/04/10 11:09:49;;;;;;;7.97;7.28;;;;;;;16.30;45.33;101351.84;5098275;28;20023;-58
2023/04/10 11:12:18;;;;;;;7.97;7.38;;;;;;;16.42;44.82;101341.97;5112316;28;20030;-58
2023/04/10 11:14:54;;;;;;;7.78;7.05;;;;;;;16.67;45.42;101325.56;5096289;28;20445;-58
2023/04/10 11:17:50;;;;;;;8.52;7.82;;;;;;;16.97;44.12;101332.13;5108075;27;20031;-58
2023/04/10 11:20:25;;;;;;;8.60;7.65;;;;;;;16.88;43.92;101325.66;5088639;28;20191;-59